sensor_id;sensor_type;location;lat;lon;timestamp;pressure;altitude;pressure_sealevel;temperature;humidity
23899;BME280;20544;50.018;20.010;2022-10-16T00:03:10;99015.35;;;13.13;100.00
23899;BME280;20544;50.018;20.010;2022-10-16T00:06:27;99012.69;;;13.13;100.00
23899;BME280;20544;50.018;20.010;2022-10-16T00:09:47;99018.02;;;13.13;100.00
23899;BME280;20544;50.018;20.010;2022-10-16T00:13:02;99013.91;;;13.10;100.00
23899;BME280;20544;50.018;20.010;2022-10-16T00:16:19;99022.13;;;13.16;100.00
23899;BME280;20544;50.018;20.010;2022-10-16T00:19:35;99018.86;;;13.14;100.00
23899;BME280;20544;50.018;20.010;2022-10-16T00:22:51;99022.73;;;13.11;100.00
23899;BME280;20544;50.018;20.010;2022-10-16T00:26:10;99028.30;;;13.16;100.00
23899;BME280;20544;50.018;20.010;2022-10-16T00:29:28;99031.41;;;13.20;100.00
23899;BME280;20544;50.018;20.010;2022-10-16T00:32:44;99030.56;;;13.19;100.00
23899;BME280;20544;50.018;20.010;2022-10-16T00:36:04;99034.64;;;13.15;100.00
23899;BME280;20544;50.018;20.010;2022-10-16T00:39:19;99038.31;;;13.14;100.00
23899;BME280;20544;50.018;20.010;2022-10-16T00:42:35;99036.05;;;13.11;100.00
23899;BME280;20544;50.018;20.010;2022-10-16T00:45:51;99047.91;;;13.08;100.00
23899;BME280;20544;50.018;20.010;2022-10-16T00:49:09;99049.08;;;13.06;100.00
23899;BME280;20544;50.018;20.010;2022-10-16T00:52:27;99056.26;;;13.05;100.00
23899;BME280;20544;50.018;20.010;2022-10-16T00:55:43;99056.21;;;12.99;100.00
23899;BME280;20544;50.018;20.010;2022-10-16T00:59:00;99055.77;;;12.95;100.00
23899;BME280;20544;50.018;20.010;2022-10-16T01:02:19;99057.34;;;12.89;100.00
23899;BME280;20544;50.018;20.010;2022-10-16T01:05:38;99059.38;;;12.87;100.00
23899;BME280;20544;50.018;20.010;2022-10-16T01:09:06;99054.48;;;12.91;100.00
23899;BME280;20544;50.018;20.010;2022-10-16T01:12:30;99046.33;;;12.92;100.00
23899;BME280;20544;50.018;20.010;2022-10-16T01:15:56;99050.80;;;12.92;100.00
23899;BME280;20544;50.018;20.010;2022-10-16T01:19:19;99042.82;;;12.92;100.00
23899;BME280;20544;50.018;20.010;2022-10-16T01:22:43;99048.98;;;12.92;100.00
23899;BME280;20544;50.018;20.010;2022-10-16T01:29:58;99051.25;;;12.95;100.00
23899;BME280;20544;50.018;20.010;2022-10-16T01:33:20;99053.91;;;12.95;100.00
23899;BME280;20544;50.018;20.010;2022-10-16T01:36:41;99058.34;;;12.88;100.00
23899;BME280;20544;50.018;20.010;2022-10-16T01:40:02;99052.21;;;12.88;100.00
23899;BME280;20544;50.018;20.010;2022-10-16T01:43:24;99061.09;;;12.95;100.00
23899;BME280;20544;50.018;20.010;2022-10-16T01:46:39;99059.05;;;12.97;100.00
23899;BME280;20544;50.018;20.010;2022-10-16T01:49:57;99070.53;;;12.98;100.00
23899;BME280;20544;50.018;20.010;2022-10-16T01:53:17;99065.58;;;12.94;100.00
23899;BME280;20544;50.018;20.010;2022-10-16T01:56:36;99065.13;;;12.91;100.00
23899;BME280;20544;50.018;20.010;2022-10-16T01:59:56;99070.03;;;12.87;100.00
23899;BME280;20544;50.018;20.010;2022-10-16T02:03:18;99071.85;;;12.87;100.00
23899;BME280;20544;50.018;20.010;2022-10-16T02:06:36;99078.02;;;12.87;100.00
23899;BME280;20544;50.018;20.010;2022-10-16T02:09:52;99073.51;;;12.88;100.00
23899;BME280;20544;50.018;20.010;2022-10-16T02:13:12;99072.50;;;12.89;100.00
23899;BME280;20544;50.018;20.010;2022-10-16T02:16:36;99080.03;;;12.85;100.00
23899;BME280;20544;50.018;20.010;2022-10-16T02:19:56;99078.38;;;12.84;100.00
23899;BME280;20544;50.018;20.010;2022-10-16T02:23:17;99081.49;;;12.88;100.00
23899;BME280;20544;50.018;20.010;2022-10-16T02:26:36;99079.03;;;12.86;100.00
23899;BME280;20544;50.018;20.010;2022-10-16T02:29:57;99076.56;;;12.85;100.00
23899;BME280;20544;50.018;20.010;2022-10-16T02:33:18;99065.91;;;12.85;100.00
23899;BME280;20544;50.018;20.010;2022-10-16T02:36:36;99076.36;;;12.86;100.00
23899;BME280;20544;50.018;20.010;2022-10-16T02:39:53;99080.29;;;12.90;100.00
23899;BME280;20544;50.018;20.010;2022-10-16T02:43:12;99074.77;;;12.92;100.00
23899;BME280;20544;50.018;20.010;2022-10-16T02:46:28;99070.90;;;12.94;100.00
23899;BME280;20544;50.018;20.010;2022-10-16T02:49:45;99079.16;;;13.00;100.00
23899;BME280;20544;50.018;20.010;2022-10-16T02:53:01;99073.39;;;12.96;100.00
23899;BME280;20544;50.018;20.010;2022-10-16T02:56:17;99066.33;;;12.88;100.00
23899;BME280;20544;50.018;20.010;2022-10-16T02:59:36;99072.05;;;12.85;100.00
23899;BME280;20544;50.018;20.010;2022-10-16T03:02:52;99073.06;;;12.84;100.00
23899;BME280;20544;50.018;20.010;2022-10-16T03:06:08;99079.59;;;12.82;100.00
23899;BME280;20544;50.018;20.010;2022-10-16T03:09:24;99082.64;;;12.78;100.00
23899;BME280;20544;50.018;20.010;2022-10-16T03:12:40;99081.55;;;12.73;100.00
23899;BME280;20544;50.018;20.010;2022-10-16T03:15:56;99082.30;;;12.67;100.00
23899;BME280;20544;50.018;20.010;2022-10-16T03:19:13;99082.03;;;12.61;100.00
23899;BME280;20544;50.018;20.010;2022-10-16T03:22:29;99080.19;;;12.62;100.00
23899;BME280;20544;50.018;20.010;2022-10-16T03:25:45;99072.41;;;12.60;100.00
23899;BME280;20544;50.018;20.010;2022-10-16T03:29:01;99072.20;;;12.62;100.00
23899;BME280;20544;50.018;20.010;2022-10-16T03:32:21;99079.13;;;12.56;100.00
23899;BME280;20544;50.018;20.010;2022-10-16T03:35:38;99091.97;;;12.53;100.00
23899;BME280;20544;50.018;20.010;2022-10-16T03:38:54;99096.19;;;12.47;100.00
23899;BME280;20544;50.018;20.010;2022-10-16T03:42:10;99098.39;;;12.43;100.00
23899;BME280;20544;50.018;20.010;2022-10-16T03:45:26;99103.84;;;12.35;100.00
23899;BME280;20544;50.018;20.010;2022-10-16T03:48:43;99110.09;;;12.27;100.00
23899;BME280;20544;50.018;20.010;2022-10-16T03:51:59;99110.44;;;12.24;100.00
23899;BME280;20544;50.018;20.010;2022-10-16T03:55:16;99112.83;;;12.19;100.00
23899;BME280;20544;50.018;20.010;2022-10-16T03:58:32;99118.23;;;12.11;100.00
23899;BME280;20544;50.018;20.010;2022-10-16T04:01:49;99127.59;;;12.07;100.00
23899;BME280;20544;50.018;20.010;2022-10-16T04:05:05;99125.47;;;12.02;100.00
23899;BME280;20544;50.018;20.010;2022-10-16T04:08:22;99126.86;;;11.98;100.00
23899;BME280;20544;50.018;20.010;2022-10-16T04:11:38;99135.53;;;11.92;100.00
23899;BME280;20544;50.018;20.010;2022-10-16T04:14:58;99130.59;;;11.89;100.00
23899;BME280;20544;50.018;20.010;2022-10-16T04:18:15;99133.97;;;11.83;100.00
23899;BME280;20544;50.018;20.010;2022-10-16T04:21:31;99136.16;;;11.79;100.00
23899;BME280;20544;50.018;20.010;2022-10-16T04:24:47;99136.51;;;11.76;100.00
23899;BME280;20544;50.018;20.010;2022-10-16T04:28:03;99134.69;;;11.76;100.00
23899;BME280;20544;50.018;20.010;2022-10-16T04:31:19;99140.82;;;11.77;100.00
23899;BME280;20544;50.018;20.010;2022-10-16T04:34:35;99137.51;;;11.75;100.00
23899;BME280;20544;50.018;20.010;2022-10-16T04:37:52;99135.04;;;11.73;100.00
23899;BME280;20544;50.018;20.010;2022-10-16T04:41:10;99136.89;;;11.73;100.00
23899;BME280;20544;50.018;20.010;2022-10-16T04:44:26;99135.04;;;11.73;100.00
23899;BME280;20544;50.018;20.010;2022-10-16T04:47:42;99132.76;;;11.70;100.00
23899;BME280;20544;50.018;20.010;2022-10-16T04:50:58;99135.10;;;11.65;100.00
23899;BME280;20544;50.018;20.010;2022-10-16T04:54:15;99139.60;;;11.64;100.00
23899;BME280;20544;50.018;20.010;2022-10-16T04:57:31;99145.83;;;11.57;100.00
23899;BME280;20544;50.018;20.010;2022-10-16T05:00:47;99145.53;;;11.52;100.00
23899;BME280;20544;50.018;20.010;2022-10-16T05:04:03;99149.72;;;11.46;100.00
23899;BME280;20544;50.018;20.010;2022-10-16T05:07:19;99149.25;;;11.42;100.00
23899;BME280;20544;50.018;20.010;2022-10-16T05:10:38;99146.97;;;11.39;100.00
23899;BME280;20544;50.018;20.010;2022-10-16T05:13:54;99149.14;;;11.36;100.00
23899;BME280;20544;50.018;20.010;2022-10-16T05:17:12;99143.36;;;11.32;100.00
23899;BME280;20544;50.018;20.010;2022-10-16T05:20:28;99148.02;;;11.30;100.00
23899;BME280;20544;50.018;20.010;2022-10-16T05:23:44;99139.58;;;11.26;100.00
23899;BME280;20544;50.018;20.010;2022-10-16T05:27:00;99151.23;;;11.25;100.00
23899;BME280;20544;50.018;20.010;2022-10-16T05:30:16;99156.69;;;11.24;100.00
23899;BME280;20544;50.018;20.010;2022-10-16T05:33:33;99158.34;;;11.25;100.00
23899;BME280;20544;50.018;20.010;2022-10-16T05:36:50;99159.01;;;11.27;100.00
23899;BME280;20544;50.018;20.010;2022-10-16T05:40:08;99176.59;;;11.28;100.00
23899;BME280;20544;50.018;20.010;2022-10-16T05:43:26;99167.27;;;11.32;100.00
23899;BME280;20544;50.018;20.010;2022-10-16T05:46:42;99169.39;;;11.37;100.00
23899;BME280;20544;50.018;20.010;2022-10-16T05:49:59;99172.52;;;11.40;100.00
23899;BME280;20544;50.018;20.010;2022-10-16T05:53:15;99173.28;;;11.49;100.00
23899;BME280;20544;50.018;20.010;2022-10-16T05:56:33;99170.26;;;11.52;100.00
23899;BME280;20544;50.018;20.010;2022-10-16T05:59:49;99167.89;;;11.57;100.00
23899;BME280;20544;50.018;20.010;2022-10-16T06:03:06;99171.67;;;11.63;100.00
23899;BME280;20544;50.018;20.010;2022-10-16T06:06:23;99167.83;;;11.65;100.00
23899;BME280;20544;50.018;20.010;2022-10-16T06:09:45;99175.90;;;11.72;100.00
23899;BME280;20544;50.018;20.010;2022-10-16T06:13:03;99182.16;;;11.79;100.00
23899;BME280;20544;50.018;20.010;2022-10-16T06:16:19;99188.41;;;11.87;100.00
23899;BME280;20544;50.018;20.010;2022-10-16T06:19:36;99196.97;;;11.97;100.00
23899;BME280;20544;50.018;20.010;2022-10-16T06:22:52;99203.69;;;12.08;100.00
23899;BME280;20544;50.018;20.010;2022-10-16T06:26:09;99207.75;;;12.19;100.00
23899;BME280;20544;50.018;20.010;2022-10-16T06:29:27;99209.77;;;12.32;100.00
23899;BME280;20544;50.018;20.010;2022-10-16T06:32:43;99220.87;;;12.50;100.00
23899;BME280;20544;50.018;20.010;2022-10-16T06:36:04;99226.91;;;12.74;100.00
23899;BME280;20544;50.018;20.010;2022-10-16T06:39:22;99223.75;;;13.00;100.00
23899;BME280;20544;50.018;20.010;2022-10-16T06:42:38;99230.56;;;13.24;100.00
23899;BME280;20544;50.018;20.010;2022-10-16T06:45:55;99240.84;;;13.42;100.00
23899;BME280;20544;50.018;20.010;2022-10-16T06:49:13;99243.14;;;13.67;100.00
23899;BME280;20544;50.018;20.010;2022-10-16T06:52:31;99249.20;;;14.04;100.00
23899;BME280;20544;50.018;20.010;2022-10-16T06:55:48;99262.25;;;14.21;100.00
23899;BME280;20544;50.018;20.010;2022-10-16T06:59:05;99272.17;;;14.97;100.00
23899;BME280;20544;50.018;20.010;2022-10-16T07:02:23;99267.59;;;15.33;100.00
23899;BME280;20544;50.018;20.010;2022-10-16T07:05:41;99266.16;;;15.44;100.00
23899;BME280;20544;50.018;20.010;2022-10-16T07:08:58;99264.55;;;15.49;100.00
23899;BME280;20544;50.018;20.010;2022-10-16T07:12:15;99267.64;;;15.53;100.00
23899;BME280;20544;50.018;20.010;2022-10-16T07:15:33;99270.98;;;15.75;100.00
23899;BME280;20544;50.018;20.010;2022-10-16T07:18:49;99275.14;;;15.98;100.00
23899;BME280;20544;50.018;20.010;2022-10-16T07:22:08;99273.30;;;16.05;100.00
23899;BME280;20544;50.018;20.010;2022-10-16T07:25:24;99276.56;;;16.07;100.00
23899;BME280;20544;50.018;20.010;2022-10-16T07:28:40;99275.34;;;16.16;100.00
23899;BME280;20544;50.018;20.010;2022-10-16T07:31:58;99286.04;;;16.23;100.00
23899;BME280;20544;50.018;20.010;2022-10-16T07:35:15;99288.31;;;16.26;100.00
23899;BME280;20544;50.018;20.010;2022-10-16T07:38:31;99281.91;;;16.41;100.00
23899;BME280;20544;50.018;20.010;2022-10-16T07:41:47;99287.05;;;16.49;100.00
23899;BME280;20544;50.018;20.010;2022-10-16T07:45:05;99286.62;;;16.52;100.00
23899;BME280;20544;50.018;20.010;2022-10-16T07:48:22;99290.12;;;16.59;100.00
23899;BME280;20544;50.018;20.010;2022-10-16T07:51:40;99283.33;;;16.57;100.00
23899;BME280;20544;50.018;20.010;2022-10-16T07:54:56;99286.41;;;16.60;100.00
23899;BME280;20544;50.018;20.010;2022-10-16T07:58:13;99289.50;;;16.64;100.00
23899;BME280;20544;50.018;20.010;2022-10-16T08:01:30;99301.23;;;16.63;100.00
23899;BME280;20544;50.018;20.010;2022-10-16T08:04:51;99303.91;;;16.63;100.00
23899;BME280;20544;50.018;20.010;2022-10-16T08:08:10;99299.37;;;16.63;100.00
23899;BME280;20544;50.018;20.010;2022-10-16T08:11:27;99302.45;;;16.67;100.00
23899;BME280;20544;50.018;20.010;2022-10-16T08:14:43;99308.22;;;16.71;100.00
23899;BME280;20544;50.018;20.010;2022-10-16T08:18:03;99308.41;;;16.76;100.00
23899;BME280;20544;50.018;20.010;2022-10-16T08:21:21;99314.39;;;16.78;100.00
23899;BME280;20544;50.018;20.010;2022-10-16T08:24:38;99312.93;;;16.82;100.00
23899;BME280;20544;50.018;20.010;2022-10-16T08:27:54;99320.96;;;16.82;100.00
23899;BME280;20544;50.018;20.010;2022-10-16T08:31:14;99316.42;;;16.89;100.00
23899;BME280;20544;50.018;20.010;2022-10-16T08:34:31;99322.00;;;16.94;100.00
23899;BME280;20544;50.018;20.010;2022-10-16T08:37:47;99321.59;;;16.97;100.00
23899;BME280;20544;50.018;20.010;2022-10-16T08:41:13;99325.30;;;16.96;100.00
23899;BME280;20544;50.018;20.010;2022-10-16T08:48:26;99328.75;;;17.10;100.00
23899;BME280;20544;50.018;20.010;2022-10-16T08:51:43;99334.92;;;17.18;100.00
23899;BME280;20544;50.018;20.010;2022-10-16T08:55:02;99333.63;;;17.34;100.00
23899;BME280;20544;50.018;20.010;2022-10-16T08:58:21;99338.54;;;17.43;100.00
23899;BME280;20544;50.018;20.010;2022-10-16T09:01:43;99335.77;;;17.57;100.00
23899;BME280;20544;50.018;20.010;2022-10-16T09:08:49;99328.56;;;17.89;100.00
23899;BME280;20544;50.018;20.010;2022-10-16T09:12:19;99334.72;;;18.03;100.00
23899;BME280;20544;50.018;20.010;2022-10-16T09:15:41;99339.61;;;18.13;100.00
23899;BME280;20544;50.018;20.010;2022-10-16T09:19:04;99345.95;;;18.19;100.00
23899;BME280;20544;50.018;20.010;2022-10-16T09:22:25;99340.16;;;18.22;100.00
23899;BME280;20544;50.018;20.010;2022-10-16T09:25:44;99344.86;;;18.26;100.00
23899;BME280;20544;50.018;20.010;2022-10-16T09:29:02;99347.05;;;18.36;100.00
23899;BME280;20544;50.018;20.010;2022-10-16T09:32:20;99348.44;;;18.46;100.00
23899;BME280;20544;50.018;20.010;2022-10-16T09:35:40;99351.22;;;18.57;100.00
23899;BME280;20544;50.018;20.010;2022-10-16T09:39:07;99354.39;;;18.73;100.00
23899;BME280;20544;50.018;20.010;2022-10-16T09:42:30;99364.79;;;18.88;100.00
23899;BME280;20544;50.018;20.010;2022-10-16T09:45:57;99364.46;;;19.03;89.92
23899;BME280;20544;50.018;20.010;2022-10-16T09:49:24;99369.47;;;19.18;88.21
23899;BME280;20544;50.018;20.010;2022-10-16T09:52:40;99368.48;;;19.31;87.14
23899;BME280;20544;50.018;20.010;2022-10-16T09:55:57;99366.82;;;19.48;84.89
23899;BME280;20544;50.018;20.010;2022-10-16T09:59:19;99368.08;;;19.64;89.64
23899;BME280;20544;50.018;20.010;2022-10-16T10:02:39;99375.73;;;19.79;84.69
23899;BME280;20544;50.018;20.010;2022-10-16T10:05:56;99378.06;;;19.76;81.74
23899;BME280;20544;50.018;20.010;2022-10-16T10:09:21;99382.77;;;19.80;83.41
23899;BME280;20544;50.018;20.010;2022-10-16T10:12:41;99375.98;;;19.78;82.58
23899;BME280;20544;50.018;20.010;2022-10-16T10:16:00;99372.68;;;19.76;81.37
23899;BME280;20544;50.018;20.010;2022-10-16T10:19:20;99372.58;;;19.82;84.65
23899;BME280;20544;50.018;20.010;2022-10-16T10:22:44;99375.50;;;19.81;82.63
23899;BME280;20544;50.018;20.010;2022-10-16T10:26:03;99378.43;;;19.79;82.54
23899;BME280;20544;50.018;20.010;2022-10-16T10:29:31;99372.17;;;19.85;85.33
23899;BME280;20544;50.018;20.010;2022-10-16T10:33:01;99369.73;;;19.96;82.31
23899;BME280;20544;50.018;20.010;2022-10-16T10:36:29;99368.02;;;20.01;83.25
23899;BME280;20544;50.018;20.010;2022-10-16T10:39:52;99373.52;;;20.07;84.45
23899;BME280;20544;50.018;20.010;2022-10-16T10:43:15;99369.78;;;20.08;80.67
23899;BME280;20544;50.018;20.010;2022-10-16T10:46:39;99362.20;;;20.16;83.81
23899;BME280;20544;50.018;20.010;2022-10-16T10:50:01;99357.63;;;20.17;79.43
23899;BME280;20544;50.018;20.010;2022-10-16T10:53:31;99353.28;;;20.16;79.53
23899;BME280;20544;50.018;20.010;2022-10-16T10:56:56;99356.34;;;20.19;84.23
23899;BME280;20544;50.018;20.010;2022-10-16T11:00:19;99352.59;;;20.20;82.75
23899;BME280;20544;50.018;20.010;2022-10-16T11:03:57;99350.14;;;20.19;81.19
23899;BME280;20544;50.018;20.010;2022-10-16T11:07:26;99357.30;;;20.25;80.84
23899;BME280;20544;50.018;20.010;2022-10-16T11:10:49;99359.88;;;20.32;79.43
23899;BME280;20544;50.018;20.010;2022-10-16T11:14:11;99342.55;;;20.40;81.73
23899;BME280;20544;50.018;20.010;2022-10-16T11:17:33;99353.23;;;20.46;81.66
23899;BME280;20544;50.018;20.010;2022-10-16T11:20:54;99351.09;;;20.48;83.64
23899;BME280;20544;50.018;20.010;2022-10-16T11:24:16;99347.36;;;20.49;82.51
23899;BME280;20544;50.018;20.010;2022-10-16T11:27:40;99342.92;;;20.55;83.02
23899;BME280;20544;50.018;20.010;2022-10-16T11:31:00;99349.12;;;20.56;82.27
23899;BME280;20544;50.018;20.010;2022-10-16T11:34:21;99348.07;;;20.57;87.46
23899;BME280;20544;50.018;20.010;2022-10-16T11:37:47;99350.41;;;20.53;82.59
23899;BME280;20544;50.018;20.010;2022-10-16T11:41:12;99357.89;;;20.51;77.68
23899;BME280;20544;50.018;20.010;2022-10-16T11:44:44;99354.15;;;20.52;79.49
23899;BME280;20544;50.018;20.010;2022-10-16T11:48:07;99350.64;;;20.51;81.90
23899;BME280;20544;50.018;20.010;2022-10-16T11:51:29;99351.09;;;20.48;81.42
23899;BME280;20544;50.018;20.010;2022-10-16T11:54:50;99340.56;;;20.47;85.73
23899;BME280;20544;50.018;20.010;2022-10-16T11:58:12;99343.73;;;20.44;89.61
23899;BME280;20544;50.018;20.010;2022-10-16T12:01:36;99349.81;;;20.39;87.99
23899;BME280;20544;50.018;20.010;2022-10-16T12:04:59;99350.27;;;20.36;93.32
23899;BME280;20544;50.018;20.010;2022-10-16T12:08:16;99352.84;;;20.31;89.68
23899;BME280;20544;50.018;20.010;2022-10-16T12:11:40;99355.17;;;20.27;88.58
23899;BME280;20544;50.018;20.010;2022-10-16T12:15:18;99353.77;;;20.25;93.24
23899;BME280;20544;50.018;20.010;2022-10-16T12:18:41;99347.45;;;20.19;96.88
23899;BME280;20544;50.018;20.010;2022-10-16T12:22:00;99353.52;;;20.14;97.11
23899;BME280;20544;50.018;20.010;2022-10-16T12:25:24;99356.69;;;20.11;100.00
23899;BME280;20544;50.018;20.010;2022-10-16T12:28:43;99359.23;;;20.06;98.96
23899;BME280;20544;50.018;20.010;2022-10-16T12:32:01;99360.30;;;20.05;100.00
23899;BME280;20544;50.018;20.010;2022-10-16T12:35:23;99354.67;;;20.07;95.59
23899;BME280;20544;50.018;20.010;2022-10-16T12:38:47;99361.23;;;20.11;96.03
23899;BME280;20544;50.018;20.010;2022-10-16T12:42:05;99353.28;;;20.16;92.27
23899;BME280;20544;50.018;20.010;2022-10-16T12:45:37;99363.37;;;20.20;88.88
23899;BME280;20544;50.018;20.010;2022-10-16T12:49:04;99353.77;;;20.25;89.49
23899;BME280;20544;50.018;20.010;2022-10-16T12:52:31;99363.84;;;20.29;82.60
23899;BME280;20544;50.018;20.010;2022-10-16T12:56:00;99367.95;;;20.32;81.29
23899;BME280;20544;50.018;20.010;2022-10-16T12:59:24;99367.71;;;20.33;86.03
23899;BME280;20544;50.018;20.010;2022-10-16T13:03:23;99362.80;;;20.30;80.76
23899;BME280;20544;50.018;20.010;2022-10-16T13:06:48;99364.66;;;20.30;86.62
23899;BME280;20544;50.018;20.010;2022-10-16T13:10:14;99368.43;;;20.29;84.40
23899;BME280;20544;50.018;20.010;2022-10-16T13:14:01;99373.22;;;20.27;81.85
23899;BME280;20544;50.018;20.010;2022-10-16T13:17:24;99379.65;;;20.26;87.06
23899;BME280;20544;50.018;20.010;2022-10-16T13:20:55;99383.86;;;20.22;83.83
23899;BME280;20544;50.018;20.010;2022-10-16T13:24:21;99391.10;;;20.21;82.13
23899;BME280;20544;50.018;20.010;2022-10-16T13:27:43;99395.08;;;20.18;82.73
23899;BME280;20544;50.018;20.010;2022-10-16T13:31:03;99390.98;;;20.16;84.12
23899;BME280;20544;50.018;20.010;2022-10-16T13:34:23;99401.98;;;20.14;87.58
23899;BME280;20544;50.018;20.010;2022-10-16T13:37:39;99399.97;;;20.10;94.40
23899;BME280;20544;50.018;20.010;2022-10-16T13:40:58;99400.89;;;20.03;95.77
23899;BME280;20544;50.018;20.010;2022-10-16T13:44:18;99402.41;;;19.99;88.15
23899;BME280;20544;50.018;20.010;2022-10-16T13:47:35;99403.21;;;20.00;90.86
23899;BME280;20544;50.018;20.010;2022-10-16T13:51:02;99401.59;;;19.99;87.46
23899;BME280;20544;50.018;20.010;2022-10-16T13:54:22;99401.80;;;19.97;86.96
23899;BME280;20544;50.018;20.010;2022-10-16T13:57:42;99416.34;;;19.96;88.49
23899;BME280;20544;50.018;20.010;2022-10-16T14:01:01;99412.44;;;19.92;87.61
23899;BME280;20544;50.018;20.010;2022-10-16T14:04:17;99418.29;;;19.89;87.21
23899;BME280;20544;50.018;20.010;2022-10-16T14:07:34;99417.69;;;19.87;87.66
23899;BME280;20544;50.018;20.010;2022-10-16T14:10:52;99418.97;;;19.84;94.50
23899;BME280;20544;50.018;20.010;2022-10-16T14:14:13;99417.52;;;19.82;95.74
23899;BME280;20544;50.018;20.010;2022-10-16T14:17:32;99418.19;;;19.77;95.82
23899;BME280;20544;50.018;20.010;2022-10-16T14:20:50;99420.14;;;19.70;93.40
23899;BME280;20544;50.018;20.010;2022-10-16T14:24:19;99415.23;;;19.67;91.17
23899;BME280;20544;50.018;20.010;2022-10-16T14:27:41;99412.77;;;19.65;90.51
23899;BME280;20544;50.018;20.010;2022-10-16T14:30:59;99421.04;;;19.64;90.96
23899;BME280;20544;50.018;20.010;2022-10-16T14:34:28;99416.94;;;19.61;91.45
23899;BME280;20544;50.018;20.010;2022-10-16T14:37:45;99419.48;;;19.56;91.08
23899;BME280;20544;50.018;20.010;2022-10-16T14:41:05;99416.22;;;19.54;90.92
23899;BME280;20544;50.018;20.010;2022-10-16T14:44:28;99410.67;;;19.49;99.17
23899;BME280;20544;50.018;20.010;2022-10-16T14:47:52;99409.34;;;19.39;98.40
23899;BME280;20544;50.018;20.010;2022-10-16T14:51:14;99407.78;;;19.32;92.92
23899;BME280;20544;50.018;20.010;2022-10-16T14:54:31;99403.67;;;19.29;93.20
23899;BME280;20544;50.018;20.010;2022-10-16T14:57:47;99397.77;;;19.20;98.77
23899;BME280;20544;50.018;20.010;2022-10-16T15:01:07;99393.14;;;19.09;100.00
23899;BME280;20544;50.018;20.010;2022-10-16T15:04:23;99393.80;;;19.04;95.14
23899;BME280;20544;50.018;20.010;2022-10-16T15:07:41;99402.90;;;19.03;94.83
23899;BME280;20544;50.018;20.010;2022-10-16T15:10:58;99416.34;;;19.03;95.40
23899;BME280;20544;50.018;20.010;2022-10-16T15:14:14;99418.30;;;18.89;99.96
23899;BME280;20544;50.018;20.010;2022-10-16T15:17:31;99416.34;;;18.78;100.00
23899;BME280;20544;50.018;20.010;2022-10-16T15:20:49;99417.88;;;18.67;100.00
23899;BME280;20544;50.018;20.010;2022-10-16T15:24:11;99425.39;;;18.58;100.00
23899;BME280;20544;50.018;20.010;2022-10-16T15:27:28;99427.06;;;18.53;100.00
23899;BME280;20544;50.018;20.010;2022-10-16T15:30:48;99425.56;;;18.32;100.00
23899;BME280;20544;50.018;20.010;2022-10-16T15:34:04;99430.25;;;18.11;100.00
23899;BME280;20544;50.018;20.010;2022-10-16T15:37:21;99431.97;;;17.99;100.00
23899;BME280;20544;50.018;20.010;2022-10-16T15:40:38;99441.26;;;17.89;100.00
23899;BME280;20544;50.018;20.010;2022-10-16T15:43:54;99442.14;;;17.83;100.00
23899;BME280;20544;50.018;20.010;2022-10-16T15:47:11;99441.79;;;17.66;100.00
23899;BME280;20544;50.018;20.010;2022-10-16T15:50:28;99447.01;;;17.48;100.00
23899;BME280;20544;50.018;20.010;2022-10-16T15:53:45;99449.13;;;17.32;100.00
23899;BME280;20544;50.018;20.010;2022-10-16T15:57:02;99448.52;;;17.17;100.00
23899;BME280;20544;50.018;20.010;2022-10-16T16:00:19;99446.28;;;17.00;100.00
23899;BME280;20544;50.018;20.010;2022-10-16T16:03:40;99449.55;;;16.89;100.00
23899;BME280;20544;50.018;20.010;2022-10-16T16:06:56;99453.67;;;16.78;100.00
23899;BME280;20544;50.018;20.010;2022-10-16T16:10:15;99452.63;;;16.72;100.00
23899;BME280;20544;50.018;20.010;2022-10-16T16:13:32;99444.39;;;16.67;100.00
23899;BME280;20544;50.018;20.010;2022-10-16T16:16:50;99435.54;;;16.66;100.00
23899;BME280;20544;50.018;20.010;2022-10-16T16:20:08;99440.47;;;16.70;100.00
23899;BME280;20544;50.018;20.010;2022-10-16T16:23:23;99439.45;;;16.71;100.00
23899;BME280;20544;50.018;20.010;2022-10-16T16:26:39;99454.91;;;16.75;100.00
23899;BME280;20544;50.018;20.010;2022-10-16T16:29:57;99455.33;;;16.79;100.00
23899;BME280;20544;50.018;20.010;2022-10-16T16:33:17;99463.56;;;16.84;100.00
23899;BME280;20544;50.018;20.010;2022-10-16T16:36:34;99476.34;;;16.89;100.00
23899;BME280;20544;50.018;20.010;2022-10-16T16:39:53;99466.87;;;16.86;100.00
23899;BME280;20544;50.018;20.010;2022-10-16T16:43:12;99480.88;;;16.75;100.00
23899;BME280;20544;50.018;20.010;2022-10-16T16:46:29;99479.41;;;16.65;100.00
23899;BME280;20544;50.018;20.010;2022-10-16T16:49:45;99493.02;;;16.64;100.00
23899;BME280;20544;50.018;20.010;2022-10-16T16:53:02;99485.81;;;16.71;100.00
23899;BME280;20544;50.018;20.010;2022-10-16T16:56:19;99505.80;;;16.75;100.00
23899;BME280;20544;50.018;20.010;2022-10-16T16:59:35;99502.91;;;16.77;100.00
23899;BME280;20544;50.018;20.010;2022-10-16T17:02:52;99499.20;;;16.78;100.00
23899;BME280;20544;50.018;20.010;2022-10-16T17:06:10;99511.78;;;16.77;100.00
23899;BME280;20544;50.018;20.010;2022-10-16T17:09:28;99512.38;;;16.79;100.00
23899;BME280;20544;50.018;20.010;2022-10-16T17:12:45;99525.17;;;16.77;100.00
23899;BME280;20544;50.018;20.010;2022-10-16T17:16:01;99522.28;;;16.79;100.00
23899;BME280;20544;50.018;20.010;2022-10-16T17:19:19;99530.73;;;16.82;100.00
23899;BME280;20544;50.018;20.010;2022-10-16T17:22:33;99534.03;;;16.78;100.00
23899;BME280;20544;50.018;20.010;2022-10-16T17:25:49;99528.45;;;16.73;100.00